Time;durP1;ratioP1;P1;durP2;ratioP2;P2;SDS_P1;SDS_P2;PMS_P1;PMS_P2;Temp;Humidity;BMP_temperature;BMP_pressure;BME280_temperature;BME280_humidity;BME280_pressure;Samples;Min_cycle;Max_cycle;Signal;HPM_P1;HPM_P2
2022/11/21 00:01:14;;;;;;;122.07;66.20;;;;;;;;;;5014106;28;20363;-76
2022/11/21 00:03:40;;;;;;;119.87;65.43;;;;;;;;;;5013065;28;20189;-76
2022/11/21 00:06:06;;;;;;;117.90;65.00;;;;;;;;;;5012528;28;20387;-77
2022/11/21 00:08:32;;;;;;;125.70;68.83;;;;;;;;;;5011582;28;20298;-76
2022/11/21 00:10:59;;;;;;;133.00;70.60;;;;;;;;;;5000105;28;20648;-76
2022/11/21 00:13:25;;;;;;;127.97;69.67;;;;;;;;;;5013669;28;20697;-77
2022/11/21 00:15:51;;;;;;;118.33;66.20;;;;;;;;;;4994153;28;20203;-76
2022/11/21 00:18:17;;;;;;;116.77;64.40;;;;;;;;;;5013529;28;20269;-76
2022/11/21 00:20:44;;;;;;;128.00;69.00;;;;;;;;;;4997451;28;20283;-76
2022/11/21 00:23:10;;;;;;;124.07;70.20;;;;;;;;;;5013278;28;20231;-77
2022/11/21 00:25:37;;;;;;;119.83;66.13;;;;;;;;;;4997243;28;20176;-77
2022/11/21 00:28:03;;;;;;;124.47;68.20;;;;;;;;;;5011507;28;20182;-78
2022/11/21 00:30:29;;;;;;;125.23;68.83;;;;;;;;;;4996446;28;20185;-78
2022/11/21 00:32:57;;;;;;;129.63;68.90;;;;;;;;;;5001564;28;20212;-78
2022/11/21 00:35:23;;;;;;;120.73;66.67;;;;;;;;;;5000405;28;20300;-77
2022/11/21 00:37:49;;;;;;;116.97;65.57;;;;;;;;;;5021367;28;20174;-77
2022/11/21 00:40:16;;;;;;;123.17;67.90;;;;;;;;;;5006210;28;20329;-77
2022/11/21 00:42:43;;;;;;;124.47;67.13;;;;;;;;;;5010915;28;20188;-77
2022/11/21 00:45:09;;;;;;;131.03;69.50;;;;;;;;;;5016932;28;20638;-77
2022/11/21 00:47:35;;;;;;;119.83;65.97;;;;;;;;;;5012755;28;20646;-78
2022/11/21 00:50:01;;;;;;;114.37;65.73;;;;;;;;;;4997140;28;20194;-76
2022/11/21 00:52:27;;;;;;;126.20;68.70;;;;;;;;;;4997345;28;20181;-77
2022/11/21 00:54:53;;;;;;;129.73;71.77;;;;;;;;;;4994469;28;20190;-78
2022/11/21 00:57:19;;;;;;;116.07;66.97;;;;;;;;;;4994696;28;20232;-78
2022/11/21 00:59:45;;;;;;;118.30;66.20;;;;;;;;;;5012895;28;20186;-78
2022/11/21 01:02:12;;;;;;;121.33;67.30;;;;;;;;;;4999834;28;20879;-78
2022/11/21 01:04:38;;;;;;;117.37;66.10;;;;;;;;;;5018127;28;20241;-76
2022/11/21 01:07:04;;;;;;;122.03;64.77;;;;;;;;;;4995911;28;20185;-77
2022/11/21 01:09:30;;;;;;;123.00;67.93;;;;;;;;;;4997281;28;20186;-77
2022/11/21 01:11:57;;;;;;;117.03;65.73;;;;;;;;;;5011808;28;20263;-77
2022/11/21 01:14:23;;;;;;;120.00;63.17;;;;;;;;;;4999097;28;20198;-77
2022/11/21 01:16:50;;;;;;;121.63;64.17;;;;;;;;;;5013208;28;20193;-76
2022/11/21 01:19:16;;;;;;;118.90;64.27;;;;;;;;;;5012106;28;20248;-80
2022/11/21 01:21:45;;;;;;;120.87;63.70;;;;;;;;;;4994092;28;20257;-77
2022/11/21 01:24:11;;;;;;;120.40;67.13;;;;;;;;;;5014479;28;20191;-76
2022/11/21 01:26:38;;;;;;;121.43;65.97;;;;;;;;;;5011979;28;20197;-80
2022/11/21 01:29:04;;;;;;;116.53;65.33;;;;;;;;;;4996273;28;20745;-77
2022/11/21 01:31:30;;;;;;;128.20;68.70;;;;;;;;;;4997829;28;20563;-79
2022/11/21 01:33:57;;;;;;;119.20;65.47;;;;;;;;;;5009570;28;20183;-77
2022/11/21 01:36:23;;;;;;;121.87;64.30;;;;;;;;;;4988716;28;20190;-79
2022/11/21 01:38:51;;;;;;;118.80;66.30;;;;;;;;;;5005124;28;20684;-80
2022/11/21 01:41:19;;;;;;;120.77;64.67;;;;;;;;;;4999581;28;20221;-76
2022/11/21 01:43:46;;;;;;;126.23;67.67;;;;;;;;;;4990982;28;20191;-76
2022/11/21 01:46:13;;;;;;;126.83;66.93;;;;;;;;;;5025256;28;20175;-76
2022/11/21 01:48:43;;;;;;;114.53;65.00;;;;;;;;;;5003938;28;20268;-76
2022/11/21 01:51:12;;;;;;;118.53;64.67;;;;;;;;;;5026144;28;20184;-75
2022/11/21 01:53:38;;;;;;;125.13;64.47;;;;;;;;;;5025568;28;20172;-77
2022/11/21 01:56:05;;;;;;;124.37;66.67;;;;;;;;;;5024137;28;20198;-75
2022/11/21 01:58:32;;;;;;;117.03;62.40;;;;;;;;;;5011164;28;20177;-77
2022/11/21 02:00:58;;;;;;;125.00;66.03;;;;;;;;;;5013200;28;20203;-77
2022/11/21 02:03:26;;;;;;;125.60;65.83;;;;;;;;;;5016532;28;20195;-75
2022/11/21 02:05:53;;;;;;;130.63;68.97;;;;;;;;;;5024898;28;20188;-77
2022/11/21 02:08:20;;;;;;;122.87;64.73;;;;;;;;;;5015582;28;20581;-79
2022/11/21 02:11:12;;;;;;;113.30;64.73;;;;;;;;;;5021713;28;20520;-76
2022/11/21 02:13:38;;;;;;;129.33;65.93;;;;;;;;;;4952139;29;20191;-79
2022/11/21 02:16:05;;;;;;;131.30;67.77;;;;;;;;;;4948211;29;20215;-78
2022/11/21 02:18:31;;;;;;;120.57;64.57;;;;;;;;;;4941471;28;20210;-78
2022/11/21 02:21:04;;;;;;;113.80;61.17;;;;;;;;;;4933849;29;20205;-77
2022/11/21 02:23:35;;;;;;;122.77;64.87;;;;;;;;;;4947406;29;20199;-77
2022/11/21 02:26:01;;;;;;;119.83;62.70;;;;;;;;;;4950732;28;20227;-80
2022/11/21 02:28:28;;;;;;;123.03;65.33;;;;;;;;;;4952591;29;20187;-80
2022/11/21 02:30:54;;;;;;;125.00;63.67;;;;;;;;;;4948279;29;20196;-80
2022/11/21 02:33:20;;;;;;;117.43;62.53;;;;;;;;;;4942995;29;20185;-77
2022/11/21 02:35:55;;;;;;;123.10;63.97;;;;;;;;;;4935362;29;20281;-78
2022/11/21 02:38:27;;;;;;;118.17;64.80;;;;;;;;;;4934452;29;20201;-79
2022/11/21 02:40:55;;;;;;;121.67;62.90;;;;;;;;;;4935240;29;20737;-76
2022/11/21 02:43:23;;;;;;;128.23;65.13;;;;;;;;;;4949761;29;20208;-77
2022/11/21 02:45:50;;;;;;;117.60;63.93;;;;;;;;;;4936784;29;20392;-77
2022/11/21 02:48:15;;;;;;;129.17;67.10;;;;;;;;;;4945368;29;20551;-78
2022/11/21 02:50:43;;;;;;;117.33;61.10;;;;;;;;;;4984019;28;20203;-76
2022/11/21 02:53:11;;;;;;;115.23;61.80;;;;;;;;;;5011405;28;20552;-79
2022/11/21 02:55:37;;;;;;;124.73;63.90;;;;;;;;;;4986705;28;20180;-78
2022/11/21 02:58:03;;;;;;;119.30;65.53;;;;;;;;;;5011202;28;20179;-78
2022/11/21 03:00:29;;;;;;;120.33;64.00;;;;;;;;;;5005020;28;20214;-78
2022/11/21 03:02:55;;;;;;;121.97;64.13;;;;;;;;;;4999985;28;20554;-79
2022/11/21 03:05:22;;;;;;;121.80;63.27;;;;;;;;;;5009824;28;20194;-77
2022/11/21 03:07:48;;;;;;;122.97;63.37;;;;;;;;;;5012130;28;20628;-77
2022/11/21 03:10:14;;;;;;;123.83;64.60;;;;;;;;;;4998994;28;20659;-76
2022/11/21 03:12:41;;;;;;;124.07;64.43;;;;;;;;;;5001382;28;20531;-79
2022/11/21 03:15:08;;;;;;;126.80;63.87;;;;;;;;;;5001912;28;20186;-81
2022/11/21 03:17:35;;;;;;;121.13;63.90;;;;;;;;;;5011206;28;20664;-76
2022/11/21 03:20:01;;;;;;;133.13;66.30;;;;;;;;;;4993463;28;20183;-79
2022/11/21 03:22:27;;;;;;;128.77;67.43;;;;;;;;;;4998008;28;20226;-76
2022/11/21 03:24:53;;;;;;;127.60;64.63;;;;;;;;;;4999680;28;20184;-78
2022/11/21 03:27:20;;;;;;;127.87;64.07;;;;;;;;;;5001952;28;20214;-78
2022/11/21 03:29:46;;;;;;;126.47;64.60;;;;;;;;;;5007986;28;20184;-78
2022/11/21 03:32:12;;;;;;;129.63;65.27;;;;;;;;;;4997051;28;20179;-77
2022/11/21 03:34:38;;;;;;;134.93;67.47;;;;;;;;;;5014844;28;20194;-77
2022/11/21 03:37:04;;;;;;;127.90;64.33;;;;;;;;;;5014768;28;20192;-80
2022/11/21 03:39:30;;;;;;;133.67;64.87;;;;;;;;;;5013593;28;20210;-78
2022/11/21 03:41:56;;;;;;;120.60;60.83;;;;;;;;;;5014807;28;20261;-78
2022/11/21 03:44:23;;;;;;;118.77;62.73;;;;;;;;;;5013288;28;20239;-78
2022/11/21 03:46:49;;;;;;;125.67;63.13;;;;;;;;;;5014658;28;20176;-79
2022/11/21 03:49:15;;;;;;;116.60;61.53;;;;;;;;;;5011605;28;20219;-79
2022/11/21 03:51:42;;;;;;;110.40;59.67;;;;;;;;;;5009539;28;20199;-75
2022/11/21 03:54:08;;;;;;;117.17;61.23;;;;;;;;;;5014555;28;20606;-77
2022/11/21 03:56:35;;;;;;;124.60;63.23;;;;;;;;;;5014584;28;20211;-77
2022/11/21 03:59:01;;;;;;;129.57;65.37;;;;;;;;;;4997761;28;20625;-76
2022/11/21 04:01:27;;;;;;;122.83;61.67;;;;;;;;;;5000759;28;20214;-76
2022/11/21 04:03:53;;;;;;;123.57;64.93;;;;;;;;;;5004434;28;20230;-78
2022/11/21 04:06:21;;;;;;;122.13;62.47;;;;;;;;;;5001216;28;20236;-76
2022/11/21 04:08:47;;;;;;;128.17;63.93;;;;;;;;;;4999995;28;20183;-77
2022/11/21 04:11:13;;;;;;;113.83;62.10;;;;;;;;;;5014711;28;20205;-79
2022/11/21 04:13:39;;;;;;;128.73;65.03;;;;;;;;;;5007398;28;20667;-77
2022/11/21 04:16:05;;;;;;;122.70;61.83;;;;;;;;;;4990925;28;20192;-80
2022/11/21 04:18:33;;;;;;;123.63;63.20;;;;;;;;;;5012521;28;20235;-78
2022/11/21 04:21:00;;;;;;;124.73;63.20;;;;;;;;;;4995120;28;20264;-79
2022/11/21 04:23:27;;;;;;;126.83;63.30;;;;;;;;;;5009256;28;20191;-79
2022/11/21 04:25:53;;;;;;;128.47;64.67;;;;;;;;;;5013548;28;20190;-76
2022/11/21 04:28:19;;;;;;;124.47;64.77;;;;;;;;;;5002191;28;20180;-77
2022/11/21 04:30:45;;;;;;;125.57;64.50;;;;;;;;;;5003262;28;20270;-77
2022/11/21 04:33:12;;;;;;;132.87;65.00;;;;;;;;;;5002437;28;20353;-78
2022/11/21 04:35:38;;;;;;;118.77;61.70;;;;;;;;;;5014503;28;20194;-76
2022/11/21 04:38:04;;;;;;;121.27;62.20;;;;;;;;;;5012717;28;20266;-78
2022/11/21 04:40:30;;;;;;;129.43;64.97;;;;;;;;;;5002588;28;20258;-78
2022/11/21 04:42:56;;;;;;;120.63;62.83;;;;;;;;;;5007664;28;20574;-79
2022/11/21 04:45:22;;;;;;;128.43;63.67;;;;;;;;;;5012317;28;20187;-77
2022/11/21 04:47:49;;;;;;;127.50;66.83;;;;;;;;;;5012410;28;20796;-78
2022/11/21 04:50:16;;;;;;;153.23;76.47;;;;;;;;;;4996756;28;20188;-79
2022/11/21 04:52:42;;;;;;;150.90;76.30;;;;;;;;;;4984143;28;20540;-78
2022/11/21 04:55:09;;;;;;;155.83;75.27;;;;;;;;;;5000738;28;20187;-78
2022/11/21 04:57:35;;;;;;;141.40;70.30;;;;;;;;;;4992751;28;20191;-79
2022/11/21 05:00:01;;;;;;;135.70;65.80;;;;;;;;;;4987260;28;20230;-77
2022/11/21 05:02:27;;;;;;;129.27;65.37;;;;;;;;;;4997105;28;20201;-78
2022/11/21 05:04:53;;;;;;;128.70;64.17;;;;;;;;;;5014357;28;20202;-76
2022/11/21 05:07:19;;;;;;;122.70;64.00;;;;;;;;;;5004140;28;20675;-76
2022/11/21 05:09:46;;;;;;;121.77;63.90;;;;;;;;;;5005451;28;20281;-79
2022/11/21 05:14:57;;;;;;;139.30;68.23;;;;;;;;;;5013438;28;20274;-76
2022/11/21 05:17:23;;;;;;;131.90;67.33;;;;;;;;;;4998320;28;20266;-77
2022/11/21 05:19:49;;;;;;;132.20;68.00;;;;;;;;;;5011293;28;20701;-77
2022/11/21 05:22:15;;;;;;;121.03;63.60;;;;;;;;;;5013257;28;20234;-78
2022/11/21 05:24:41;;;;;;;129.00;65.13;;;;;;;;;;5012453;28;20230;-79
2022/11/21 05:27:06;;;;;;;124.67;61.77;;;;;;;;;;5011968;28;20187;-75
2022/11/21 05:29:33;;;;;;;131.10;65.77;;;;;;;;;;5011067;28;20176;-77
2022/11/21 05:31:58;;;;;;;136.53;65.43;;;;;;;;;;5008358;28;20203;-79
2022/11/21 05:34:24;;;;;;;130.03;66.10;;;;;;;;;;5011651;28;20648;-77
2022/11/21 05:36:56;;;;;;;134.03;67.47;;;;;;;;;;5006055;28;20180;-78
2022/11/21 05:39:22;;;;;;;132.73;66.30;;;;;;;;;;4999714;28;20727;-76
2022/11/21 05:41:48;;;;;;;125.53;65.00;;;;;;;;;;4996039;28;20285;-77
2022/11/21 05:44:14;;;;;;;131.30;65.53;;;;;;;;;;4994858;28;20187;-78
2022/11/21 05:46:40;;;;;;;136.27;67.30;;;;;;;;;;5010342;28;20588;-78
2022/11/21 05:49:07;;;;;;;134.27;66.83;;;;;;;;;;5004583;28;20204;-78
2022/11/21 05:51:33;;;;;;;128.03;63.87;;;;;;;;;;5000582;28;20536;-76
2022/11/21 05:53:59;;;;;;;130.67;65.40;;;;;;;;;;4999415;28;20183;-77
2022/11/21 05:56:25;;;;;;;130.40;64.40;;;;;;;;;;5012303;28;20803;-75
2022/11/21 05:58:53;;;;;;;124.97;63.03;;;;;;;;;;4992141;28;20176;-76
2022/11/21 06:03:25;;;;;;;126.03;64.40;;;;;;;;;;5007368;28;20321;-76
2022/11/21 06:04:06;;;;;;;114.33;59.20;;;;;;;;;;5005198;28;20283;-76
2022/11/21 06:06:32;;;;;;;127.57;63.20;;;;;;;;;;5001844;28;20535;-77
2022/11/21 06:08:58;;;;;;;118.67;59.47;;;;;;;;;;4990396;28;20207;-76
2022/11/21 06:11:24;;;;;;;123.37;62.27;;;;;;;;;;5011132;28;20179;-77
2022/11/21 06:13:51;;;;;;;123.20;62.57;;;;;;;;;;5011436;28;20186;-80
2022/11/21 06:16:18;;;;;;;120.33;61.27;;;;;;;;;;4998879;28;20183;-80
2022/11/21 06:18:45;;;;;;;116.33;62.07;;;;;;;;;;5011519;28;20190;-78
2022/11/21 06:21:14;;;;;;;114.50;60.07;;;;;;;;;;5010726;28;20231;-80
2022/11/21 06:23:40;;;;;;;132.40;63.30;;;;;;;;;;4976038;28;20211;-79
2022/11/21 06:26:07;;;;;;;124.57;63.83;;;;;;;;;;4991100;28;20206;-80
2022/11/21 06:28:35;;;;;;;124.37;65.43;;;;;;;;;;4990417;28;20191;-80
2022/11/21 06:31:04;;;;;;;128.63;64.40;;;;;;;;;;5010831;28;20206;-78
2022/11/21 06:33:31;;;;;;;135.70;67.20;;;;;;;;;;4989416;28;20710;-80
2022/11/21 06:35:56;;;;;;;128.73;66.00;;;;;;;;;;5003028;28;20183;-78
2022/11/21 06:38:22;;;;;;;120.03;61.50;;;;;;;;;;4992485;28;20190;-80
2022/11/21 06:40:48;;;;;;;124.17;62.87;;;;;;;;;;4979011;28;20679;-77
2022/11/21 06:43:14;;;;;;;119.40;63.23;;;;;;;;;;5003288;28;20227;-79
2022/11/21 06:45:40;;;;;;;125.37;62.33;;;;;;;;;;5001844;28;20271;-78
2022/11/21 06:48:06;;;;;;;129.60;66.03;;;;;;;;;;4994976;28;20688;-78
2022/11/21 06:50:33;;;;;;;119.40;62.87;;;;;;;;;;4993985;28;20676;-77
2022/11/21 06:52:59;;;;;;;122.00;63.27;;;;;;;;;;4979573;28;20176;-77
2022/11/21 06:55:26;;;;;;;127.83;65.07;;;;;;;;;;4998421;28;20547;-76
2022/11/21 06:57:53;;;;;;;124.50;64.30;;;;;;;;;;4998485;28;20724;-76
2022/11/21 07:00:19;;;;;;;117.70;60.70;;;;;;;;;;5002855;28;20265;-77
2022/11/21 07:02:46;;;;;;;124.57;64.20;;;;;;;;;;5004360;28;20194;-79
2022/11/21 07:05:12;;;;;;;118.83;62.60;;;;;;;;;;5012056;28;20175;-76
2022/11/21 07:07:38;;;;;;;123.33;64.93;;;;;;;;;;5001422;28;20234;-76
2022/11/21 07:10:04;;;;;;;119.67;61.43;;;;;;;;;;4999661;28;20231;-76
2022/11/21 07:15:22;;;;;;;118.03;62.10;;;;;;;;;;4966677;28;20216;-77
2022/11/21 07:17:48;;;;;;;118.73;60.67;;;;;;;;;;4950244;28;20235;-75
2022/11/21 07:20:14;;;;;;;107.00;58.13;;;;;;;;;;4969321;28;20659;-77
2022/11/21 07:22:40;;;;;;;112.07;60.90;;;;;;;;;;4950096;28;20505;-74
2022/11/21 07:25:06;;;;;;;112.97;60.17;;;;;;;;;;4966580;28;20645;-76
2022/11/21 07:27:32;;;;;;;109.17;59.03;;;;;;;;;;4968378;28;20252;-77
2022/11/21 07:29:58;;;;;;;115.93;61.07;;;;;;;;;;4950297;28;20185;-76
2022/11/21 07:32:25;;;;;;;107.47;59.00;;;;;;;;;;4953412;28;20668;-76
2022/11/21 07:34:51;;;;;;;117.83;58.57;;;;;;;;;;4966789;28;20190;-77
2022/11/21 07:37:17;;;;;;;114.70;59.23;;;;;;;;;;4949589;28;20182;-76
2022/11/21 07:39:43;;;;;;;113.57;60.13;;;;;;;;;;4945826;28;20650;-77
2022/11/21 07:42:09;;;;;;;102.93;58.23;;;;;;;;;;4950203;28;20309;-76
2022/11/21 07:44:35;;;;;;;101.47;56.77;;;;;;;;;;4952561;28;20797;-77
2022/11/21 07:47:01;;;;;;;104.43;55.27;;;;;;;;;;4969055;28;20666;-77
2022/11/21 07:49:27;;;;;;;99.10;55.10;;;;;;;;;;4958160;28;20251;-75
2022/11/21 07:51:53;;;;;;;105.43;55.63;;;;;;;;;;4950226;28;20192;-77
2022/11/21 07:54:19;;;;;;;99.73;54.03;;;;;;;;;;5006817;28;21132;-77
2022/11/21 07:56:45;;;;;;;102.70;53.60;;;;;;;;;;5009795;28;20703;-77
2022/11/21 07:59:11;;;;;;;100.03;51.90;;;;;;;;;;5018532;28;20205;-77
2022/11/21 08:01:37;;;;;;;104.20;53.27;;;;;;;;;;4991598;28;20216;-78
2022/11/21 08:04:03;;;;;;;96.60;51.83;;;;;;;;;;5010079;28;20199;-77
2022/11/21 08:06:29;;;;;;;90.63;51.23;;;;;;;;;;5012440;28;20196;-77
2022/11/21 08:08:55;;;;;;;95.87;54.77;;;;;;;;;;5008943;28;20189;-77
2022/11/21 08:11:21;;;;;;;91.70;51.90;;;;;;;;;;5011256;28;20176;-76
2022/11/21 08:13:47;;;;;;;101.43;55.13;;;;;;;;;;5004980;28;20283;-77
2022/11/21 08:16:13;;;;;;;114.80;64.33;;;;;;;;;;4989054;28;20659;-76
2022/11/21 08:18:39;;;;;;;95.00;55.20;;;;;;;;;;5012913;28;20247;-76
2022/11/21 08:21:05;;;;;;;91.33;49.53;;;;;;;;;;5011944;28;20224;-76
2022/11/21 08:23:31;;;;;;;83.03;49.67;;;;;;;;;;5021991;28;20209;-76
2022/11/21 08:25:58;;;;;;;80.23;46.53;;;;;;;;;;5013526;28;20179;-77
2022/11/21 08:28:24;;;;;;;83.07;48.23;;;;;;;;;;5013745;28;20189;-76
2022/11/21 08:30:50;;;;;;;86.80;46.97;;;;;;;;;;5014131;28;20553;-78
2022/11/21 08:33:16;;;;;;;76.30;45.40;;;;;;;;;;5011577;28;20191;-78
2022/11/21 08:35:42;;;;;;;84.47;48.50;;;;;;;;;;5013715;28;20181;-76
2022/11/21 08:38:08;;;;;;;77.83;46.83;;;;;;;;;;5014738;28;20697;-77
2022/11/21 08:40:34;;;;;;;81.63;45.67;;;;;;;;;;5003519;28;20804;-77
2022/11/21 08:43:08;;;;;;;73.93;44.97;;;;;;;;;;5001685;28;20197;-78
2022/11/21 08:45:35;;;;;;;75.00;45.43;;;;;;;;;;5004030;28;20268;-77
2022/11/21 08:48:01;;;;;;;77.93;44.73;;;;;;;;;;5011642;28;20198;-77
2022/11/21 08:50:27;;;;;;;77.47;41.63;;;;;;;;;;5013098;28;20236;-75
2022/11/21 08:52:53;;;;;;;80.47;45.07;;;;;;;;;;5012241;28;20544;-77
2022/11/21 08:55:20;;;;;;;71.57;44.50;;;;;;;;;;5004815;28;20187;-78
2022/11/21 08:57:46;;;;;;;77.80;47.13;;;;;;;;;;5008251;28;20958;-77
2022/11/21 09:00:13;;;;;;;68.03;41.43;;;;;;;;;;5006253;28;20273;-77
2022/11/21 09:02:39;;;;;;;71.30;43.40;;;;;;;;;;4992824;28;20191;-77
2022/11/21 09:05:05;;;;;;;67.43;42.63;;;;;;;;;;5012281;28;20178;-77
2022/11/21 09:07:31;;;;;;;72.33;45.03;;;;;;;;;;5012644;28;20519;-77
2022/11/21 09:09:57;;;;;;;73.27;42.70;;;;;;;;;;5011859;28;20189;-76
2022/11/21 09:12:23;;;;;;;66.50;40.40;;;;;;;;;;5011668;28;20281;-77
2022/11/21 09:20:18;;;;;;;65.63;39.87;;;;;;;;;;5011527;28;20252;-77
2022/11/21 09:22:44;;;;;;;66.83;39.53;;;;;;;;;;5011865;28;20684;-77
2022/11/21 09:25:10;;;;;;;62.87;39.30;;;;;;;;;;5012622;28;20232;-77
2022/11/21 09:27:36;;;;;;;63.83;40.53;;;;;;;;;;4989463;28;20244;-76
2022/11/21 09:30:02;;;;;;;60.10;39.27;;;;;;;;;;4996055;28;20186;-77
2022/11/21 09:32:28;;;;;;;62.03;37.57;;;;;;;;;;5011779;28;20175;-76
2022/11/21 09:34:54;;;;;;;58.60;36.50;;;;;;;;;;5011113;28;20230;-76
2022/11/21 09:37:20;;;;;;;50.67;34.00;;;;;;;;;;5004381;28;20227;-75
2022/11/21 09:39:46;;;;;;;52.70;33.67;;;;;;;;;;4999967;28;20640;-77
2022/11/21 09:42:30;;;;;;;49.47;32.20;;;;;;;;;;5009886;28;20214;-76
2022/11/21 09:45:15;;;;;;;47.83;30.73;;;;;;;;;;5009539;28;20266;-77
2022/11/21 09:47:43;;;;;;;51.57;33.90;;;;;;;;;;5006094;28;20179;-75
2022/11/21 09:50:12;;;;;;;53.40;34.50;;;;;;;;;;5008677;28;20175;-75
2022/11/21 09:52:41;;;;;;;48.07;33.23;;;;;;;;;;5009426;28;20183;-75
2022/11/21 09:55:16;;;;;;;54.80;33.73;;;;;;;;;;5006323;28;20270;-76
2022/11/21 09:57:42;;;;;;;52.70;34.23;;;;;;;;;;4998919;28;20195;-75
2022/11/21 10:00:14;;;;;;;51.60;34.13;;;;;;;;;;4994662;28;20187;-76
2022/11/21 10:02:40;;;;;;;54.77;33.17;;;;;;;;;;4992399;28;20266;-77
2022/11/21 10:05:12;;;;;;;57.27;34.53;;;;;;;;;;4992339;28;20179;-75
2022/11/21 10:07:38;;;;;;;51.53;32.37;;;;;;;;;;4993186;28;20221;-76
2022/11/21 10:10:19;;;;;;;48.13;30.73;;;;;;;;;;5007060;28;20266;-78
2022/11/21 10:13:04;;;;;;;48.67;31.40;;;;;;;;;;4998388;28;20221;-77
2022/11/21 10:15:57;;;;;;;47.80;31.00;;;;;;;;;;4996377;28;20183;-77
2022/11/21 10:18:29;;;;;;;49.50;30.73;;;;;;;;;;4992169;28;20556;-77
2022/11/21 10:21:14;;;;;;;49.27;30.57;;;;;;;;;;4993396;28;20259;-76
2022/11/21 10:23:40;;;;;;;48.17;30.40;;;;;;;;;;4999195;28;20602;-77
2022/11/21 10:26:24;;;;;;;43.83;30.57;;;;;;;;;;4998450;28;20176;-77
2022/11/21 10:28:52;;;;;;;56.33;33.47;;;;;;;;;;4999405;28;20188;-76
2022/11/21 10:31:18;;;;;;;46.47;29.60;;;;;;;;;;4978872;28;20234;-76
2022/11/21 10:33:45;;;;;;;54.83;33.90;;;;;;;;;;4996992;28;20636;-78
2022/11/21 10:36:29;;;;;;;48.93;32.37;;;;;;;;;;4994965;28;20647;-77
2022/11/21 10:39:00;;;;;;;52.63;33.43;;;;;;;;;;4991363;28;20167;-75
2022/11/21 10:41:37;;;;;;;51.53;33.57;;;;;;;;;;4993003;28;20270;-76
2022/11/21 10:47:13;;;;;;;56.43;37.77;;;;;;;;;;5010458;28;20538;-77
2022/11/21 10:49:39;;;;;;;55.00;34.57;;;;;;;;;;5007515;28;20187;-78
2022/11/21 10:52:06;;;;;;;47.00;31.87;;;;;;;;;;5010049;28;20187;-77
2022/11/21 10:54:32;;;;;;;49.37;32.07;;;;;;;;;;5007746;28;20189;-78
2022/11/21 10:57:16;;;;;;;47.83;31.70;;;;;;;;;;4993114;28;20659;-78
2022/11/21 10:59:55;;;;;;;53.53;32.90;;;;;;;;;;5005314;28;20171;-76
2022/11/21 11:02:23;;;;;;;50.80;33.77;;;;;;;;;;4995075;28;20203;-76
2022/11/21 11:05:09;;;;;;;50.70;32.47;;;;;;;;;;4980191;28;20191;-78
2022/11/21 11:07:35;;;;;;;52.67;34.47;;;;;;;;;;5005749;28;20190;-79
2022/11/21 11:10:15;;;;;;;49.13;33.83;;;;;;;;;;5007075;28;20261;-77
2022/11/21 11:15:34;;;;;;;47.43;32.80;;;;;;;;;;4909459;29;20198;-78
2022/11/21 11:18:01;;;;;;;48.17;32.83;;;;;;;;;;4910146;29;20194;-79
2022/11/21 11:20:43;;;;;;;49.43;32.87;;;;;;;;;;4925004;29;20214;-76
2022/11/21 11:23:21;;;;;;;51.80;33.77;;;;;;;;;;4932704;29;20245;-78
2022/11/21 11:25:49;;;;;;;50.53;35.17;;;;;;;;;;4933146;29;20278;-78
2022/11/21 11:28:18;;;;;;;52.60;33.50;;;;;;;;;;4931513;29;20193;-77
2022/11/21 11:30:44;;;;;;;58.33;36.27;;;;;;;;;;4935018;29;20250;-77
2022/11/21 11:33:29;;;;;;;57.97;35.70;;;;;;;;;;4935200;29;20220;-77
2022/11/21 11:36:02;;;;;;;57.23;37.03;;;;;;;;;;4931425;29;20286;-77
2022/11/21 11:38:30;;;;;;;56.23;38.23;;;;;;;;;;4935102;29;20178;-76
2022/11/21 11:40:59;;;;;;;53.67;35.07;;;;;;;;;;4914556;29;20202;-78
2022/11/21 11:49:21;;;;;;;55.90;37.17;;;;;;;;;;4940647;29;20227;-77
2022/11/21 11:51:51;;;;;;;61.63;38.37;;;;;;;;;;4956633;28;20214;-80
2022/11/21 11:54:19;;;;;;;59.00;38.93;;;;;;;;;;5013637;28;20246;-79
2022/11/21 11:56:46;;;;;;;56.10;37.67;;;;;;;;;;5029473;28;20169;-79
2022/11/21 11:59:22;;;;;;;58.83;39.90;;;;;;;;;;5025210;28;20195;-77
2022/11/21 12:01:55;;;;;;;63.43;39.63;;;;;;;;;;5011367;28;20203;-81
2022/11/21 12:04:22;;;;;;;58.63;39.40;;;;;;;;;;5013895;28;20275;-79
2022/11/21 12:06:51;;;;;;;60.30;39.23;;;;;;;;;;5004773;28;20190;-80
2022/11/21 12:09:32;;;;;;;59.50;40.60;;;;;;;;;;5000677;28;20179;-78
2022/11/21 12:12:08;;;;;;;59.07;39.87;;;;;;;;;;5011667;28;20182;-78
2022/11/21 12:17:41;;;;;;;63.63;41.03;;;;;;;;;;5000360;28;20538;-79
2022/11/21 12:20:33;;;;;;;62.07;40.90;;;;;;;;;;5002616;28;20195;-77
2022/11/21 12:23:00;;;;;;;64.97;41.57;;;;;;;;;;4934757;29;20242;-78
2022/11/21 12:25:29;;;;;;;61.50;41.43;;;;;;;;;;4918466;29;20815;-78
2022/11/21 12:27:56;;;;;;;60.93;40.53;;;;;;;;;;4935234;29;20208;-79
2022/11/21 12:30:41;;;;;;;64.03;41.23;;;;;;;;;;4919543;29;20551;-78
2022/11/21 12:33:17;;;;;;;61.53;40.33;;;;;;;;;;4918785;29;20718;-79
2022/11/21 12:35:48;;;;;;;63.33;40.47;;;;;;;;;;4919298;29;20247;-76
2022/11/21 12:38:29;;;;;;;67.03;40.73;;;;;;;;;;4933885;29;20194;-79
2022/11/21 12:42:48;;;;;;;65.47;42.07;;;;;;;;;;4934459;29;20312;-79
2022/11/21 12:44:14;;;;;;;71.40;44.33;;;;;;;;;;4934625;29;20186;-77
2022/11/21 12:46:52;;;;;;;70.53;43.73;;;;;;;;;;4939501;29;20300;-76
2022/11/21 12:55:17;;;;;;;73.30;43.93;;;;;;;;;;4934780;29;20361;-78
2022/11/21 12:58:12;;;;;;;71.67;44.27;;;;;;;;;;4934198;29;20252;-78
2022/11/21 13:00:46;;;;;;;74.27;45.40;;;;;;;;;;4979572;28;20276;-78
2022/11/21 13:03:27;;;;;;;70.33;44.60;;;;;;;;;;4994402;28;20190;-77
2022/11/21 13:05:55;;;;;;;70.63;44.27;;;;;;;;;;5011073;28;20654;-78
2022/11/21 13:08:22;;;;;;;73.23;44.63;;;;;;;;;;4986661;28;20214;-77
2022/11/21 13:11:57;;;;;;;65.80;42.87;;;;;;;;;;5014078;28;20544;-77
2022/11/21 13:13:38;;;;;;;71.67;42.40;;;;;;;;;;5007825;28;20661;-79
2022/11/21 13:16:15;;;;;;;66.87;42.00;;;;;;;;;;5001536;28;20538;-80
2022/11/21 13:18:42;;;;;;;70.90;43.53;;;;;;;;;;4995210;28;20621;-79
2022/11/21 13:21:29;;;;;;;71.47;44.03;;;;;;;;;;4996778;28;20227;-78
2022/11/21 13:23:55;;;;;;;65.37;41.33;;;;;;;;;;4998858;28;20558;-79
2022/11/21 13:26:24;;;;;;;71.20;42.73;;;;;;;;;;5011119;28;20183;-79
2022/11/21 13:28:52;;;;;;;70.43;41.67;;;;;;;;;;4993040;28;20183;-77
2022/11/21 13:31:33;;;;;;;69.20;41.17;;;;;;;;;;4990476;28;20218;-78
2022/11/21 13:34:04;;;;;;;68.43;41.67;;;;;;;;;;4999642;28;20214;-79
2022/11/21 13:36:33;;;;;;;67.77;41.63;;;;;;;;;;5007812;28;20203;-78
2022/11/21 13:38:59;;;;;;;66.13;42.23;;;;;;;;;;4994790;28;20541;-79
2022/11/21 13:44:31;;;;;;;68.77;42.50;;;;;;;;;;5001671;28;20207;-77
2022/11/21 13:47:16;;;;;;;67.47;44.13;;;;;;;;;;5011427;28;20186;-80
2022/11/21 13:50:01;;;;;;;74.27;43.63;;;;;;;;;;4993470;28;20179;-79
2022/11/21 13:52:39;;;;;;;66.37;41.90;;;;;;;;;;5007038;28;20198;-77
2022/11/21 13:55:14;;;;;;;67.83;42.63;;;;;;;;;;5011434;28;20182;-77
2022/11/21 13:57:43;;;;;;;82.47;47.67;;;;;;;;;;5010027;28;20213;-79
2022/11/21 14:00:39;;;;;;;71.40;46.23;;;;;;;;;;4995855;28;20187;-79
2022/11/21 14:03:20;;;;;;;76.07;47.13;;;;;;;;;;4882592;29;20301;-80
2022/11/21 14:06:05;;;;;;;79.07;47.60;;;;;;;;;;4893629;29;20230;-77
2022/11/21 14:08:31;;;;;;;78.33;46.03;;;;;;;;;;4898527;29;20205;-78
2022/11/21 14:10:57;;;;;;;74.90;46.43;;;;;;;;;;4907481;29;20269;-77
2022/11/21 14:13:26;;;;;;;71.73;45.00;;;;;;;;;;4911925;29;20200;-78
2022/11/21 14:16:11;;;;;;;81.80;47.50;;;;;;;;;;4913090;29;20190;-78
2022/11/21 14:18:38;;;;;;;69.37;43.37;;;;;;;;;;4892168;29;20217;-80
2022/11/21 14:21:07;;;;;;;76.97;44.27;;;;;;;;;;4897453;29;20317;-77
2022/11/21 14:23:34;;;;;;;85.07;49.87;;;;;;;;;;4899677;29;20198;-78
2022/11/21 14:26:02;;;;;;;91.83;54.60;;;;;;;;;;4912840;29;20206;-79
2022/11/21 14:28:29;;;;;;;100.20;54.10;;;;;;;;;;4910911;29;20665;-79
2022/11/21 14:30:56;;;;;;;92.17;54.23;;;;;;;;;;4902543;29;20197;-78
2022/11/21 14:33:23;;;;;;;84.47;49.50;;;;;;;;;;4888732;29;20590;-77
2022/11/21 14:35:54;;;;;;;87.77;52.47;;;;;;;;;;4898040;29;20588;-79
2022/11/21 14:38:21;;;;;;;79.27;48.57;;;;;;;;;;4901979;28;20194;-80
2022/11/21 14:40:47;;;;;;;75.23;45.70;;;;;;;;;;4981430;28;20302;-80
2022/11/21 14:43:29;;;;;;;80.27;48.83;;;;;;;;;;4970103;28;20188;-78
2022/11/21 14:45:55;;;;;;;78.87;45.97;;;;;;;;;;4990248;28;20557;-78
2022/11/21 14:48:28;;;;;;;74.17;43.47;;;;;;;;;;4972993;28;20626;-80
2022/11/21 14:50:55;;;;;;;71.13;44.27;;;;;;;;;;4977048;28;20183;-79
2022/11/21 14:53:21;;;;;;;71.97;44.17;;;;;;;;;;4974226;28;20188;-81